sensor_id;sensor_type;location;lat;lon;timestamp;P1;durP1;ratioP1;P2;durP2;ratioP2
23747;SDS011;12054;53.662;10.126;2023-04-01T00:01:45;7.85;;;5.50;;
23747;SDS011;12054;53.662;10.126;2023-04-01T00:04:11;8.65;;;5.30;;
23747;SDS011;12054;53.662;10.126;2023-04-01T00:06:36;9.45;;;5.22;;
23747;SDS011;12054;53.662;10.126;2023-04-01T00:09:02;11.75;;;4.97;;
23747;SDS011;12054;53.662;10.126;2023-04-01T00:11:27;9.07;;;5.15;;
23747;SDS011;12054;53.662;10.126;2023-04-01T00:13:53;9.65;;;5.10;;
23747;SDS011;12054;53.662;10.126;2023-04-01T00:16:22;9.55;;;5.30;;
23747;SDS011;12054;53.662;10.126;2023-04-01T00:18:48;8.80;;;4.78;;
23747;SDS011;12054;53.662;10.126;2023-04-01T00:21:14;10.80;;;5.20;;
23747;SDS011;12054;53.662;10.126;2023-04-01T00:23:40;11.57;;;5.00;;
23747;SDS011;12054;53.662;10.126;2023-04-01T00:26:09;7.97;;;5.20;;
23747;SDS011;12054;53.662;10.126;2023-04-01T00:28:36;10.02;;;4.90;;
23747;SDS011;12054;53.662;10.126;2023-04-01T00:31:06;10.52;;;5.00;;
23747;SDS011;12054;53.662;10.126;2023-04-01T00:33:33;6.72;;;5.45;;
23747;SDS011;12054;53.662;10.126;2023-04-01T00:36:08;11.38;;;5.57;;
23747;SDS011;12054;53.662;10.126;2023-04-01T00:38:44;9.05;;;5.68;;
23747;SDS011;12054;53.662;10.126;2023-04-01T00:41:11;11.88;;;5.30;;
23747;SDS011;12054;53.662;10.126;2023-04-01T00:43:40;10.05;;;5.47;;
23747;SDS011;12054;53.662;10.126;2023-04-01T00:46:07;10.88;;;5.50;;
23747;SDS011;12054;53.662;10.126;2023-04-01T00:48:33;8.90;;;5.70;;
23747;SDS011;12054;53.662;10.126;2023-04-01T00:51:04;8.40;;;5.55;;
23747;SDS011;12054;53.662;10.126;2023-04-01T00:53:34;11.25;;;5.85;;
23747;SDS011;12054;53.662;10.126;2023-04-01T00:56:05;10.82;;;5.75;;
23747;SDS011;12054;53.662;10.126;2023-04-01T00:58:37;12.32;;;6.15;;
23747;SDS011;12054;53.662;10.126;2023-04-01T01:01:06;9.45;;;6.18;;
23747;SDS011;12054;53.662;10.126;2023-04-01T01:03:33;13.32;;;7.18;;
23747;SDS011;12054;53.662;10.126;2023-04-01T01:17:00;11.88;;;6.35;;
23747;SDS011;12054;53.662;10.126;2023-04-01T01:22:43;16.85;;;6.70;;
23747;SDS011;12054;53.662;10.126;2023-04-01T01:33:48;12.15;;;6.57;;
23747;SDS011;12054;53.662;10.126;2023-04-01T01:36:32;11.77;;;6.57;;
23747;SDS011;12054;53.662;10.126;2023-04-01T01:39:00;13.65;;;6.78;;
23747;SDS011;12054;53.662;10.126;2023-04-01T01:41:27;11.73;;;6.85;;
23747;SDS011;12054;53.662;10.126;2023-04-01T01:43:55;12.32;;;7.38;;
23747;SDS011;12054;53.662;10.126;2023-04-01T01:46:24;11.48;;;7.03;;
23747;SDS011;12054;53.662;10.126;2023-04-01T01:48:51;15.38;;;6.47;;
23747;SDS011;12054;53.662;10.126;2023-04-01T01:51:18;14.25;;;6.30;;
23747;SDS011;12054;53.662;10.126;2023-04-01T01:53:46;10.82;;;6.57;;
23747;SDS011;12054;53.662;10.126;2023-04-01T01:56:12;10.73;;;6.75;;
23747;SDS011;12054;53.662;10.126;2023-04-01T01:58:48;13.75;;;7.28;;
23747;SDS011;12054;53.662;10.126;2023-04-01T02:01:19;10.05;;;5.90;;
23747;SDS011;12054;53.662;10.126;2023-04-01T02:03:49;12.70;;;7.15;;
23747;SDS011;12054;53.662;10.126;2023-04-01T02:06:17;12.25;;;6.38;;
23747;SDS011;12054;53.662;10.126;2023-04-01T02:08:52;14.13;;;6.40;;
23747;SDS011;12054;53.662;10.126;2023-04-01T02:11:32;11.93;;;6.18;;
23747;SDS011;12054;53.662;10.126;2023-04-01T02:17:18;9.98;;;5.88;;
23747;SDS011;12054;53.662;10.126;2023-04-01T02:19:47;10.75;;;6.25;;
23747;SDS011;12054;53.662;10.126;2023-04-01T02:22:28;14.80;;;6.57;;
23747;SDS011;12054;53.662;10.126;2023-04-01T02:25:05;11.95;;;6.53;;
23747;SDS011;12054;53.662;10.126;2023-04-01T02:27:33;11.57;;;6.40;;
23747;SDS011;12054;53.662;10.126;2023-04-01T02:29:58;11.23;;;5.88;;
23747;SDS011;12054;53.662;10.126;2023-04-01T02:32:24;10.85;;;6.50;;
23747;SDS011;12054;53.662;10.126;2023-04-01T02:34:52;14.40;;;6.38;;
23747;SDS011;12054;53.662;10.126;2023-04-01T02:37:18;10.13;;;6.68;;
23747;SDS011;12054;53.662;10.126;2023-04-01T02:39:44;13.50;;;7.05;;
23747;SDS011;12054;53.662;10.126;2023-04-01T02:42:10;13.93;;;6.78;;
23747;SDS011;12054;53.662;10.126;2023-04-01T02:44:35;11.40;;;6.70;;
23747;SDS011;12054;53.662;10.126;2023-04-01T02:47:01;12.65;;;6.32;;
23747;SDS011;12054;53.662;10.126;2023-04-01T02:49:27;13.93;;;7.20;;
23747;SDS011;12054;53.662;10.126;2023-04-01T02:51:53;12.40;;;6.65;;
23747;SDS011;12054;53.662;10.126;2023-04-01T02:54:18;12.18;;;7.15;;
23747;SDS011;12054;53.662;10.126;2023-04-01T02:56:44;10.85;;;6.55;;
23747;SDS011;12054;53.662;10.126;2023-04-01T02:59:12;12.48;;;6.60;;
23747;SDS011;12054;53.662;10.126;2023-04-01T03:01:38;10.57;;;6.85;;
23747;SDS011;12054;53.662;10.126;2023-04-01T03:04:03;10.52;;;6.35;;
23747;SDS011;12054;53.662;10.126;2023-04-01T03:06:29;10.25;;;6.60;;
23747;SDS011;12054;53.662;10.126;2023-04-01T03:08:55;12.88;;;7.22;;
23747;SDS011;12054;53.662;10.126;2023-04-01T03:11:20;11.45;;;7.60;;
23747;SDS011;12054;53.662;10.126;2023-04-01T03:13:46;13.25;;;7.22;;
23747;SDS011;12054;53.662;10.126;2023-04-01T03:16:12;14.52;;;7.88;;
23747;SDS011;12054;53.662;10.126;2023-04-01T03:18:37;13.23;;;7.30;;
23747;SDS011;12054;53.662;10.126;2023-04-01T03:21:22;14.23;;;7.82;;
23747;SDS011;12054;53.662;10.126;2023-04-01T03:23:48;14.45;;;7.75;;
23747;SDS011;12054;53.662;10.126;2023-04-01T03:26:14;14.77;;;7.88;;
23747;SDS011;12054;53.662;10.126;2023-04-01T03:28:40;14.85;;;8.48;;
23747;SDS011;12054;53.662;10.126;2023-04-01T03:31:06;14.63;;;8.18;;
23747;SDS011;12054;53.662;10.126;2023-04-01T03:33:31;14.90;;;7.47;;
23747;SDS011;12054;53.662;10.126;2023-04-01T03:35:58;12.38;;;7.60;;
23747;SDS011;12054;53.662;10.126;2023-04-01T03:38:23;12.90;;;8.05;;
23747;SDS011;12054;53.662;10.126;2023-04-01T03:40:49;14.05;;;7.53;;
23747;SDS011;12054;53.662;10.126;2023-04-01T03:43:14;11.88;;;7.07;;
23747;SDS011;12054;53.662;10.126;2023-04-01T03:45:48;11.27;;;7.10;;
23747;SDS011;12054;53.662;10.126;2023-04-01T03:48:16;12.10;;;6.75;;
23747;SDS011;12054;53.662;10.126;2023-04-01T03:50:42;13.50;;;7.30;;
23747;SDS011;12054;53.662;10.126;2023-04-01T03:53:08;9.80;;;6.75;;
23747;SDS011;12054;53.662;10.126;2023-04-01T03:55:35;10.57;;;7.03;;
23747;SDS011;12054;53.662;10.126;2023-04-01T03:58:01;12.40;;;7.30;;
23747;SDS011;12054;53.662;10.126;2023-04-01T04:00:30;13.85;;;7.10;;
23747;SDS011;12054;53.662;10.126;2023-04-01T04:02:56;10.20;;;7.00;;
23747;SDS011;12054;53.662;10.126;2023-04-01T04:05:22;12.48;;;6.78;;
23747;SDS011;12054;53.662;10.126;2023-04-01T04:07:49;10.90;;;6.85;;
23747;SDS011;12054;53.662;10.126;2023-04-01T04:10:15;11.05;;;6.65;;
23747;SDS011;12054;53.662;10.126;2023-04-01T04:12:40;12.32;;;7.13;;
23747;SDS011;12054;53.662;10.126;2023-04-01T04:15:06;11.05;;;6.65;;
23747;SDS011;12054;53.662;10.126;2023-04-01T04:17:32;9.32;;;6.57;;
23747;SDS011;12054;53.662;10.126;2023-04-01T04:19:57;12.73;;;6.50;;
23747;SDS011;12054;53.662;10.126;2023-04-01T04:22:23;9.88;;;6.18;;
23747;SDS011;12054;53.662;10.126;2023-04-01T04:24:49;12.43;;;6.90;;
23747;SDS011;12054;53.662;10.126;2023-04-01T04:27:14;12.45;;;6.43;;
23747;SDS011;12054;53.662;10.126;2023-04-01T04:29:40;12.77;;;6.88;;
23747;SDS011;12054;53.662;10.126;2023-04-01T04:32:05;11.63;;;6.78;;
23747;SDS011;12054;53.662;10.126;2023-04-01T04:34:31;11.80;;;6.85;;
23747;SDS011;12054;53.662;10.126;2023-04-01T04:36:57;8.00;;;5.78;;
23747;SDS011;12054;53.662;10.126;2023-04-01T04:39:22;3.53;;;2.20;;
23747;SDS011;12054;53.662;10.126;2023-04-01T04:41:48;2.47;;;1.98;;
23747;SDS011;12054;53.662;10.126;2023-04-01T04:44:13;1.65;;;1.40;;
23747;SDS011;12054;53.662;10.126;2023-04-01T04:46:39;1.80;;;1.40;;
23747;SDS011;12054;53.662;10.126;2023-04-01T04:49:05;2.67;;;1.63;;
23747;SDS011;12054;53.662;10.126;2023-04-01T04:51:30;1.60;;;1.50;;
23747;SDS011;12054;53.662;10.126;2023-04-01T04:53:59;1.92;;;1.73;;
23747;SDS011;12054;53.662;10.126;2023-04-01T04:56:25;3.63;;;1.63;;
23747;SDS011;12054;53.662;10.126;2023-04-01T04:58:51;2.45;;;1.90;;
23747;SDS011;12054;53.662;10.126;2023-04-01T05:01:17;2.05;;;1.70;;
23747;SDS011;12054;53.662;10.126;2023-04-01T05:03:43;1.80;;;1.60;;
23747;SDS011;12054;53.662;10.126;2023-04-01T05:06:10;3.10;;;1.80;;
23747;SDS011;12054;53.662;10.126;2023-04-01T05:08:38;2.22;;;1.80;;
23747;SDS011;12054;53.662;10.126;2023-04-01T05:11:06;1.80;;;1.40;;
23747;SDS011;12054;53.662;10.126;2023-04-01T05:13:35;1.67;;;1.40;;
23747;SDS011;12054;53.662;10.126;2023-04-01T05:16:00;1.52;;;1.42;;
23747;SDS011;12054;53.662;10.126;2023-04-01T05:18:26;1.30;;;1.20;;
23747;SDS011;12054;53.662;10.126;2023-04-01T05:20:52;1.50;;;1.30;;
23747;SDS011;12054;53.662;10.126;2023-04-01T05:23:20;1.80;;;1.35;;
23747;SDS011;12054;53.662;10.126;2023-04-01T05:25:50;1.80;;;1.35;;
23747;SDS011;12054;53.662;10.126;2023-04-01T05:28:17;1.55;;;1.45;;
23747;SDS011;12054;53.662;10.126;2023-04-01T05:30:44;1.48;;;1.02;;
23747;SDS011;12054;53.662;10.126;2023-04-01T05:33:10;1.38;;;1.05;;
23747;SDS011;12054;53.662;10.126;2023-04-01T05:35:37;1.38;;;1.20;;
23747;SDS011;12054;53.662;10.126;2023-04-01T05:38:03;2.00;;;1.60;;
23747;SDS011;12054;53.662;10.126;2023-04-01T05:40:29;1.40;;;1.20;;
23747;SDS011;12054;53.662;10.126;2023-04-01T05:42:55;2.05;;;1.38;;
23747;SDS011;12054;53.662;10.126;2023-04-01T05:45:21;1.70;;;1.60;;
23747;SDS011;12054;53.662;10.126;2023-04-01T05:47:46;1.85;;;1.30;;
23747;SDS011;12054;53.662;10.126;2023-04-01T05:50:12;1.20;;;0.95;;
23747;SDS011;12054;53.662;10.126;2023-04-01T05:52:38;1.73;;;1.30;;
23747;SDS011;12054;53.662;10.126;2023-04-01T05:55:04;1.60;;;1.42;;
23747;SDS011;12054;53.662;10.126;2023-04-01T05:57:30;1.30;;;1.00;;
23747;SDS011;12054;53.662;10.126;2023-04-01T05:59:55;5.57;;;1.60;;
23747;SDS011;12054;53.662;10.126;2023-04-01T06:02:21;1.85;;;1.20;;
23747;SDS011;12054;53.662;10.126;2023-04-01T06:04:47;1.40;;;1.23;;
23747;SDS011;12054;53.662;10.126;2023-04-01T06:07:13;1.90;;;1.40;;
23747;SDS011;12054;53.662;10.126;2023-04-01T06:09:41;1.60;;;1.30;;
23747;SDS011;12054;53.662;10.126;2023-04-01T06:23:07;1.42;;;1.33;;
23747;SDS011;12054;53.662;10.126;2023-04-01T06:28:49;1.10;;;0.90;;
23747;SDS011;12054;53.662;10.126;2023-04-01T06:45:46;1.42;;;0.80;;
23747;SDS011;12054;53.662;10.126;2023-04-01T06:54:06;1.08;;;0.93;;
23747;SDS011;12054;53.662;10.126;2023-04-01T06:56:36;1.73;;;0.90;;
23747;SDS011;12054;53.662;10.126;2023-04-01T06:59:05;1.05;;;0.80;;
23747;SDS011;12054;53.662;10.126;2023-04-01T07:01:38;0.70;;;0.60;;
23747;SDS011;12054;53.662;10.126;2023-04-01T07:04:34;0.90;;;0.63;;
23747;SDS011;12054;53.662;10.126;2023-04-01T07:09:43;1.25;;;0.65;;
23747;SDS011;12054;53.662;10.126;2023-04-01T07:14:54;1.58;;;0.95;;
23747;SDS011;12054;53.662;10.126;2023-04-01T07:17:22;2.40;;;1.00;;
23747;SDS011;12054;53.662;10.126;2023-04-01T07:20:00;1.55;;;0.90;;
23747;SDS011;12054;53.662;10.126;2023-04-01T07:22:38;0.90;;;0.82;;
23747;SDS011;12054;53.662;10.126;2023-04-01T07:27:50;1.67;;;0.98;;
23747;SDS011;12054;53.662;10.126;2023-04-01T07:30:21;2.05;;;1.00;;
23747;SDS011;12054;53.662;10.126;2023-04-01T07:32:52;2.03;;;1.23;;
23747;SDS011;12054;53.662;10.126;2023-04-01T07:35:39;1.02;;;0.93;;
23747;SDS011;12054;53.662;10.126;2023-04-01T07:54:50;0.60;;;0.60;;
23747;SDS011;12054;53.662;10.126;2023-04-01T07:57:29;1.85;;;0.90;;
23747;SDS011;12054;53.662;10.126;2023-04-01T08:00:07;1.67;;;0.95;;
23747;SDS011;12054;53.662;10.126;2023-04-01T08:02:48;0.63;;;0.50;;
23747;SDS011;12054;53.662;10.126;2023-04-01T08:05:25;0.90;;;0.80;;
23747;SDS011;12054;53.662;10.126;2023-04-01T08:10:52;1.05;;;0.88;;
23747;SDS011;12054;53.662;10.126;2023-04-01T08:13:34;1.00;;;0.90;;
23747;SDS011;12054;53.662;10.126;2023-04-01T08:16:23;0.93;;;0.77;;
23747;SDS011;12054;53.662;10.126;2023-04-01T08:21:57;0.90;;;0.70;;
23747;SDS011;12054;53.662;10.126;2023-04-01T08:24:33;2.85;;;0.70;;
23747;SDS011;12054;53.662;10.126;2023-04-01T08:27:06;0.70;;;0.70;;
23747;SDS011;12054;53.662;10.126;2023-04-01T08:29:42;0.63;;;0.60;;
23747;SDS011;12054;53.662;10.126;2023-04-01T08:32:22;0.95;;;0.75;;
23747;SDS011;12054;53.662;10.126;2023-04-01T08:35:07;1.02;;;0.68;;
23747;SDS011;12054;53.662;10.126;2023-04-01T08:37:51;0.82;;;0.82;;
23747;SDS011;12054;53.662;10.126;2023-04-01T08:40:26;1.10;;;1.00;;
23747;SDS011;12054;53.662;10.126;2023-04-01T08:43:09;1.15;;;0.80;;
23747;SDS011;12054;53.662;10.126;2023-04-01T08:46:06;1.33;;;0.70;;
23747;SDS011;12054;53.662;10.126;2023-04-01T08:48:51;1.00;;;0.90;;
23747;SDS011;12054;53.662;10.126;2023-04-01T08:51:23;1.40;;;1.00;;
23747;SDS011;12054;53.662;10.126;2023-04-01T08:56:36;0.77;;;0.77;;
23747;SDS011;12054;53.662;10.126;2023-04-01T08:59:32;0.60;;;0.60;;
23747;SDS011;12054;53.662;10.126;2023-04-01T09:02:25;0.70;;;0.70;;
23747;SDS011;12054;53.662;10.126;2023-04-01T09:08:12;1.80;;;0.95;;
23747;SDS011;12054;53.662;10.126;2023-04-01T09:10:59;1.40;;;0.60;;
23747;SDS011;12054;53.662;10.126;2023-04-01T09:18:56;1.60;;;0.73;;
23747;SDS011;12054;53.662;10.126;2023-04-01T09:37:33;0.75;;;0.70;;
23747;SDS011;12054;53.662;10.126;2023-04-01T09:40:21;1.42;;;0.73;;
23747;SDS011;12054;53.662;10.126;2023-04-01T09:48:35;0.50;;;0.50;;
23747;SDS011;12054;53.662;10.126;2023-04-01T09:51:33;0.85;;;0.60;;
23747;SDS011;12054;53.662;10.126;2023-04-01T10:16:21;0.40;;;0.40;;
23747;SDS011;12054;53.662;10.126;2023-04-01T10:19:20;0.35;;;0.35;;
23747;SDS011;12054;53.662;10.126;2023-04-01T10:25:41;0.63;;;0.60;;
23747;SDS011;12054;53.662;10.126;2023-04-01T10:40:28;1.13;;;0.75;;
23747;SDS011;12054;53.662;10.126;2023-04-01T10:54:36;1.75;;;0.85;;
23747;SDS011;12054;53.662;10.126;2023-04-01T10:57:16;1.33;;;0.70;;
23747;SDS011;12054;53.662;10.126;2023-04-01T11:23:34;2.83;;;1.48;;
23747;SDS011;12054;53.662;10.126;2023-04-01T11:31:47;2.42;;;1.80;;
23747;SDS011;12054;53.662;10.126;2023-04-01T11:34:41;2.33;;;2.10;;
23747;SDS011;12054;53.662;10.126;2023-04-01T11:37:46;4.22;;;2.28;;
23747;SDS011;12054;53.662;10.126;2023-04-01T11:40:43;2.70;;;1.98;;
23747;SDS011;12054;53.662;10.126;2023-04-01T11:43:22;3.63;;;2.80;;
23747;SDS011;12054;53.662;10.126;2023-04-01T11:46:18;3.47;;;2.38;;
23747;SDS011;12054;53.662;10.126;2023-04-01T11:48:54;2.80;;;2.25;;
23747;SDS011;12054;53.662;10.126;2023-04-01T11:57:22;2.13;;;1.58;;
23747;SDS011;12054;53.662;10.126;2023-04-01T11:59:58;3.30;;;2.15;;
23747;SDS011;12054;53.662;10.126;2023-04-01T12:02:48;2.45;;;1.75;;
23747;SDS011;12054;53.662;10.126;2023-04-01T12:05:35;5.65;;;3.22;;
23747;SDS011;12054;53.662;10.126;2023-04-01T12:11:15;5.30;;;3.25;;
23747;SDS011;12054;53.662;10.126;2023-04-01T12:25:16;3.65;;;2.50;;
23747;SDS011;12054;53.662;10.126;2023-04-01T12:36:43;4.72;;;2.83;;
23747;SDS011;12054;53.662;10.126;2023-04-01T12:45:24;7.22;;;5.15;;
23747;SDS011;12054;53.662;10.126;2023-04-01T12:53:48;7.57;;;3.08;;
23747;SDS011;12054;53.662;10.126;2023-04-01T12:56:23;5.95;;;3.60;;
23747;SDS011;12054;53.662;10.126;2023-04-01T12:58:56;6.63;;;4.30;;
23747;SDS011;12054;53.662;10.126;2023-04-01T13:02:14;6.95;;;4.10;;
23747;SDS011;12054;53.662;10.126;2023-04-01T13:07:34;5.00;;;3.28;;
23747;SDS011;12054;53.662;10.126;2023-04-01T13:10:27;5.40;;;3.40;;
23747;SDS011;12054;53.662;10.126;2023-04-01T13:16:08;6.45;;;3.15;;
23747;SDS011;12054;53.662;10.126;2023-04-01T13:18:41;5.03;;;2.63;;
23747;SDS011;12054;53.662;10.126;2023-04-01T13:27:49;4.43;;;2.40;;
23747;SDS011;12054;53.662;10.126;2023-04-01T13:29:52;5.05;;;3.75;;
23747;SDS011;12054;53.662;10.126;2023-04-01T13:32:50;4.95;;;3.05;;
23747;SDS011;12054;53.662;10.126;2023-04-01T13:35:54;5.95;;;4.32;;
23747;SDS011;12054;53.662;10.126;2023-04-01T13:41:38;7.82;;;3.70;;
23747;SDS011;12054;53.662;10.126;2023-04-01T13:46:54;5.07;;;3.10;;
23747;SDS011;12054;53.662;10.126;2023-04-01T13:49:31;9.05;;;4.05;;
23747;SDS011;12054;53.662;10.126;2023-04-01T13:52:23;6.93;;;3.92;;
23747;SDS011;12054;53.662;10.126;2023-04-01T13:55:16;7.70;;;4.88;;
23747;SDS011;12054;53.662;10.126;2023-04-01T14:00:46;7.38;;;3.70;;
23747;SDS011;12054;53.662;10.126;2023-04-01T14:06:04;6.63;;;4.03;;
23747;SDS011;12054;53.662;10.126;2023-04-01T14:14:52;6.60;;;4.22;;
23747;SDS011;12054;53.662;10.126;2023-04-01T14:17:59;6.18;;;4.30;;
23747;SDS011;12054;53.662;10.126;2023-04-01T14:23:34;6.85;;;4.60;;
23747;SDS011;12054;53.662;10.126;2023-04-01T14:29:23;5.07;;;3.42;;
23747;SDS011;12054;53.662;10.126;2023-04-01T14:38:14;6.10;;;3.05;;
23747;SDS011;12054;53.662;10.126;2023-04-01T14:49:51;4.93;;;2.88;;
23747;SDS011;12054;53.662;10.126;2023-04-01T14:52:28;7.93;;;3.95;;
23747;SDS011;12054;53.662;10.126;2023-04-01T14:55:00;2.95;;;1.98;;
23747;SDS011;12054;53.662;10.126;2023-04-01T14:57:36;6.82;;;3.53;;
23747;SDS011;12054;53.662;10.126;2023-04-01T15:00:15;7.50;;;3.78;;
23747;SDS011;12054;53.662;10.126;2023-04-01T15:02:45;7.45;;;3.33;;
23747;SDS011;12054;53.662;10.126;2023-04-01T15:05:52;6.85;;;4.05;;
23747;SDS011;12054;53.662;10.126;2023-04-01T15:08:57;4.80;;;3.47;;
23747;SDS011;12054;53.662;10.126;2023-04-01T15:14:23;3.83;;;2.42;;
23747;SDS011;12054;53.662;10.126;2023-04-01T15:30:21;9.02;;;4.43;;
23747;SDS011;12054;53.662;10.126;2023-04-01T15:33:17;4.93;;;3.15;;
23747;SDS011;12054;53.662;10.126;2023-04-01T15:35:57;5.32;;;3.10;;
23747;SDS011;12054;53.662;10.126;2023-04-01T15:38:53;7.75;;;4.50;;
23747;SDS011;12054;53.662;10.126;2023-04-01T15:45:10;8.05;;;4.32;;
23747;SDS011;12054;53.662;10.126;2023-04-01T15:53:24;4.97;;;3.42;;
23747;SDS011;12054;53.662;10.126;2023-04-01T15:58:27;8.70;;;4.18;;
23747;SDS011;12054;53.662;10.126;2023-04-01T16:01:07;7.07;;;3.72;;
23747;SDS011;12054;53.662;10.126;2023-04-01T16:06:35;6.65;;;3.75;;
23747;SDS011;12054;53.662;10.126;2023-04-01T16:09:44;7.53;;;3.67;;
23747;SDS011;12054;53.662;10.126;2023-04-01T16:12:30;2.80;;;1.88;;
23747;SDS011;12054;53.662;10.126;2023-04-01T16:15:42;4.82;;;4.03;;
23747;SDS011;12054;53.662;10.126;2023-04-01T16:26:13;6.35;;;3.40;;
23747;SDS011;12054;53.662;10.126;2023-04-01T16:31:48;8.43;;;4.70;;
23747;SDS011;12054;53.662;10.126;2023-04-01T16:34:33;6.40;;;3.50;;
23747;SDS011;12054;53.662;10.126;2023-04-01T16:42:47;7.00;;;2.80;;
23747;SDS011;12054;53.662;10.126;2023-04-01T16:53:17;7.25;;;3.17;;
23747;SDS011;12054;53.662;10.126;2023-04-01T16:55:52;5.45;;;2.53;;
23747;SDS011;12054;53.662;10.126;2023-04-01T16:58:35;5.05;;;3.00;;
23747;SDS011;12054;53.662;10.126;2023-04-01T17:01:15;4.93;;;3.00;;
23747;SDS011;12054;53.662;10.126;2023-04-01T17:10:04;5.60;;;2.75;;
23747;SDS011;12054;53.662;10.126;2023-04-01T17:15:47;4.10;;;2.75;;
23747;SDS011;12054;53.662;10.126;2023-04-01T17:18:33;2.20;;;1.83;;
23747;SDS011;12054;53.662;10.126;2023-04-01T17:21:26;5.63;;;2.92;;
23747;SDS011;12054;53.662;10.126;2023-04-01T17:24:46;7.00;;;3.15;;
23747;SDS011;12054;53.662;10.126;2023-04-01T17:29:59;4.15;;;2.67;;
23747;SDS011;12054;53.662;10.126;2023-04-01T17:38:23;5.50;;;2.63;;
23747;SDS011;12054;53.662;10.126;2023-04-01T17:44:22;7.35;;;3.28;;
23747;SDS011;12054;53.662;10.126;2023-04-01T17:58:40;6.05;;;3.42;;
23747;SDS011;12054;53.662;10.126;2023-04-01T18:01:13;3.38;;;2.60;;
23747;SDS011;12054;53.662;10.126;2023-04-01T18:06:47;3.40;;;1.70;;
23747;SDS011;12054;53.662;10.126;2023-04-01T18:09:44;4.60;;;2.03;;
23747;SDS011;12054;53.662;10.126;2023-04-01T18:12:34;3.28;;;2.05;;
23747;SDS011;12054;53.662;10.126;2023-04-01T18:21:08;4.93;;;2.50;;
23747;SDS011;12054;53.662;10.126;2023-04-01T18:23:51;6.35;;;2.50;;
23747;SDS011;12054;53.662;10.126;2023-04-01T18:26:24;7.30;;;3.15;;
23747;SDS011;12054;53.662;10.126;2023-04-01T18:31:54;4.32;;;2.55;;
23747;SDS011;12054;53.662;10.126;2023-04-01T18:34:54;6.45;;;2.38;;
23747;SDS011;12054;53.662;10.126;2023-04-01T18:37:38;3.97;;;2.63;;
23747;SDS011;12054;53.662;10.126;2023-04-01T18:48:15;7.40;;;2.70;;
23747;SDS011;12054;53.662;10.126;2023-04-01T18:50:54;8.68;;;4.10;;
23747;SDS011;12054;53.662;10.126;2023-04-01T18:53:28;5.63;;;3.20;;
23747;SDS011;12054;53.662;10.126;2023-04-01T18:56:07;5.38;;;2.90;;
23747;SDS011;12054;53.662;10.126;2023-04-01T18:58:49;5.25;;;3.33;;
23747;SDS011;12054;53.662;10.126;2023-04-01T19:06:48;5.50;;;3.08;;
23747;SDS011;12054;53.662;10.126;2023-04-01T19:12:34;5.20;;;3.17;;
23747;SDS011;12054;53.662;10.126;2023-04-01T19:26:25;4.90;;;2.45;;
23747;SDS011;12054;53.662;10.126;2023-04-01T19:29:21;5.40;;;2.72;;
23747;SDS011;12054;53.662;10.126;2023-04-01T19:31:51;3.85;;;2.25;;
23747;SDS011;12054;53.662;10.126;2023-04-01T19:45:51;5.43;;;2.38;;
23747;SDS011;12054;53.662;10.126;2023-04-01T19:48:35;5.55;;;2.78;;
23747;SDS011;12054;53.662;10.126;2023-04-01T19:51:29;9.30;;;3.45;;
23747;SDS011;12054;53.662;10.126;2023-04-01T19:56:47;6.30;;;2.80;;
23747;SDS011;12054;53.662;10.126;2023-04-01T20:01:51;4.63;;;2.92;;
23747;SDS011;12054;53.662;10.126;2023-04-01T20:06:59;5.30;;;2.38;;
23747;SDS011;12054;53.662;10.126;2023-04-01T20:09:46;2.88;;;1.60;;
23747;SDS011;12054;53.662;10.126;2023-04-01T20:14:58;5.20;;;2.35;;
23747;SDS011;12054;53.662;10.126;2023-04-01T20:20:13;2.88;;;1.88;;
23747;SDS011;12054;53.662;10.126;2023-04-01T20:28:09;5.47;;;2.88;;
23747;SDS011;12054;53.662;10.126;2023-04-01T20:36:00;7.13;;;2.60;;
23747;SDS011;12054;53.662;10.126;2023-04-01T20:41:40;7.50;;;2.90;;
23747;SDS011;12054;53.662;10.126;2023-04-01T20:44:09;6.28;;;2.35;;
23747;SDS011;12054;53.662;10.126;2023-04-01T20:46:39;5.35;;;2.60;;
23747;SDS011;12054;53.662;10.126;2023-04-01T20:52:41;4.60;;;2.63;;
23747;SDS011;12054;53.662;10.126;2023-04-01T21:07:13;5.60;;;2.20;;
23747;SDS011;12054;53.662;10.126;2023-04-01T21:10:21;4.00;;;2.03;;
23747;SDS011;12054;53.662;10.126;2023-04-01T21:13:21;4.78;;;2.60;;
23747;SDS011;12054;53.662;10.126;2023-04-01T21:18:54;4.90;;;2.33;;
23747;SDS011;12054;53.662;10.126;2023-04-01T21:21:53;5.28;;;2.50;;
23747;SDS011;12054;53.662;10.126;2023-04-01T21:27:34;5.63;;;1.88;;
23747;SDS011;12054;53.662;10.126;2023-04-01T21:31:03;4.63;;;1.73;;
23747;SDS011;12054;53.662;10.126;2023-04-01T21:36:11;4.78;;;1.58;;
23747;SDS011;12054;53.662;10.126;2023-04-01T21:39:01;4.07;;;1.90;;
23747;SDS011;12054;53.662;10.126;2023-04-01T21:41:53;4.13;;;2.00;;
23747;SDS011;12054;53.662;10.126;2023-04-01T21:55:42;4.10;;;1.70;;
23747;SDS011;12054;53.662;10.126;2023-04-01T21:58:24;5.72;;;2.22;;
23747;SDS011;12054;53.662;10.126;2023-04-01T22:01:32;7.85;;;2.22;;
23747;SDS011;12054;53.662;10.126;2023-04-01T22:04:24;2.10;;;1.48;;
23747;SDS011;12054;53.662;10.126;2023-04-01T22:09:52;2.88;;;1.52;;
23747;SDS011;12054;53.662;10.126;2023-04-01T22:15:22;4.05;;;1.98;;
23747;SDS011;12054;53.662;10.126;2023-04-01T22:21:09;5.05;;;1.65;;
23747;SDS011;12054;53.662;10.126;2023-04-01T22:23:56;5.28;;;1.90;;
23747;SDS011;12054;53.662;10.126;2023-04-01T22:26:38;2.50;;;1.55;;
23747;SDS011;12054;53.662;10.126;2023-04-01T22:29:31;6.30;;;1.70;;
23747;SDS011;12054;53.662;10.126;2023-04-01T22:32:04;4.97;;;1.65;;
23747;SDS011;12054;53.662;10.126;2023-04-01T22:40:22;3.03;;;1.50;;
23747;SDS011;12054;53.662;10.126;2023-04-01T22:43:07;4.97;;;2.00;;
23747;SDS011;12054;53.662;10.126;2023-04-01T22:48:24;7.15;;;1.67;;
23747;SDS011;12054;53.662;10.126;2023-04-01T23:02:14;3.65;;;1.15;;
23747;SDS011;12054;53.662;10.126;2023-04-01T23:04:45;5.47;;;1.23;;
23747;SDS011;12054;53.662;10.126;2023-04-01T23:07:27;4.97;;;1.33;;
23747;SDS011;12054;53.662;10.126;2023-04-01T23:10:12;5.28;;;1.25;;
23747;SDS011;12054;53.662;10.126;2023-04-01T23:12:41;4.28;;;1.20;;
23747;SDS011;12054;53.662;10.126;2023-04-01T23:15:11;3.47;;;1.08;;
23747;SDS011;12054;53.662;10.126;2023-04-01T23:17:45;7.35;;;1.13;;
23747;SDS011;12054;53.662;10.126;2023-04-01T23:20:27;1.02;;;0.77;;
23747;SDS011;12054;53.662;10.126;2023-04-01T23:25:57;1.88;;;0.85;;
23747;SDS011;12054;53.662;10.126;2023-04-01T23:28:48;2.90;;;1.08;;
23747;SDS011;12054;53.662;10.126;2023-04-01T23:31:26;2.88;;;1.20;;
23747;SDS011;12054;53.662;10.126;2023-04-01T23:34:02;1.92;;;0.82;;
23747;SDS011;12054;53.662;10.126;2023-04-01T23:36:49;3.28;;;1.52;;
23747;SDS011;12054;53.662;10.126;2023-04-01T23:39:31;1.63;;;1.05;;
23747;SDS011;12054;53.662;10.126;2023-04-01T23:42:03;6.28;;;1.40;;
23747;SDS011;12054;53.662;10.126;2023-04-01T23:44:37;4.40;;;1.00;;
23747;SDS011;12054;53.662;10.126;2023-04-01T23:47:03;4.18;;;1.02;;
23747;SDS011;12054;53.662;10.126;2023-04-01T23:49:36;1.38;;;0.70;;
23747;SDS011;12054;53.662;10.126;2023-04-01T23:52:10;3.63;;;1.13;;
23747;SDS011;12054;53.662;10.126;2023-04-01T23:55:22;3.58;;;1.30;;
23747;SDS011;12054;53.662;10.126;2023-04-01T23:58:16;1.40;;;0.90;;
